createdAt,value
2023-01-23T00:01:27.159Z,39.30
2023-01-23T00:03:55.334Z,39.30
2023-01-23T00:06:22.685Z,40.70
2023-01-23T00:08:49.980Z,36.10
2023-01-23T00:11:21.781Z,31.00
2023-01-23T00:13:48.967Z,33.70
2023-01-23T00:16:24.199Z,33.50
2023-01-23T00:18:51.594Z,35.90
2023-01-23T00:21:20.836Z,33.20
2023-01-23T00:23:50.212Z,38.90
2023-01-23T00:26:20.314Z,36.80
2023-01-23T00:28:49.051Z,38.90
2023-01-23T00:31:26.781Z,37.40
2023-01-23T00:33:58.662Z,32.90
2023-01-23T00:36:29.127Z,30.40
2023-01-23T00:38:56.651Z,32.70
2023-01-23T00:41:24.348Z,32.80
2023-01-23T00:43:52.470Z,32.60
2023-01-23T00:46:20.986Z,35.50
2023-01-23T00:48:48.301Z,32.40
2023-01-23T00:51:15.867Z,31.80
2023-01-23T00:53:43.763Z,27.80
2023-01-23T00:56:11.037Z,29.40
2023-01-23T00:58:38.296Z,24.50
2023-01-23T01:01:05.580Z,22.80
2023-01-23T01:03:32.788Z,23.20
2023-01-23T01:06:01.494Z,21.00
2023-01-23T01:08:28.934Z,21.00
2023-01-23T01:10:57.516Z,21.50
2023-01-23T01:13:25.545Z,24.10
2023-01-23T01:15:52.854Z,24.20
2023-01-23T01:18:20.632Z,18.10
2023-01-23T01:20:48.420Z,18.90
2023-01-23T01:23:15.937Z,18.10
2023-01-23T01:25:43.186Z,17.50
2023-01-23T01:28:10.433Z,19.60
2023-01-23T01:30:37.863Z,14.30
2023-01-23T01:33:05.211Z,11.00
2023-01-23T01:35:32.522Z,10.60
2023-01-23T01:38:00.126Z,11.30
2023-01-23T01:40:29.366Z,15.70
2023-01-23T01:42:58.748Z,13.70
2023-01-23T01:46:45.319Z,13.30
2023-01-23T01:49:24.072Z,14.10
2023-01-23T01:51:52.972Z,15.60
2023-01-23T01:54:22.988Z,16.90
2023-01-23T01:56:53.151Z,17.90
2023-01-23T01:59:20.382Z,16.60
2023-01-23T02:01:48.218Z,15.10
2023-01-23T02:04:15.937Z,16.70
2023-01-23T02:06:43.147Z,15.00
2023-01-23T02:09:23.456Z,16.90
2023-01-23T02:11:51.404Z,14.70
2023-01-23T02:14:20.482Z,10.90
2023-01-23T02:16:52.282Z,12.30
2023-01-23T02:19:25.230Z,8.80
2023-01-23T02:21:55.023Z,10.20
2023-01-23T02:25:14.822Z,10.80
2023-01-23T02:27:44.420Z,6.50
2023-01-23T02:30:12.489Z,6.90
2023-01-23T02:32:41.889Z,9.40
2023-01-23T02:35:14.301Z,6.50
2023-01-23T02:37:43.095Z,6.50
2023-01-23T02:40:11.607Z,6.50
2023-01-23T02:42:41.447Z,5.30
2023-01-23T02:45:09.525Z,5.90
2023-01-23T02:47:36.991Z,6.90
2023-01-23T02:50:04.287Z,6.30
2023-01-23T02:52:32.251Z,5.60
2023-01-23T02:54:59.552Z,6.80
2023-01-23T02:57:27.116Z,5.60
2023-01-23T03:00:13.133Z,6.80
2023-01-23T03:02:40.528Z,5.60
2023-01-23T03:05:10.049Z,5.70
2023-01-23T03:07:37.403Z,5.40
2023-01-23T03:10:05.444Z,6.10
2023-01-23T03:12:32.776Z,5.00
2023-01-23T03:15:00.081Z,6.60
2023-01-23T03:17:29.135Z,6.00
2023-01-23T03:19:57.947Z,5.40
2023-01-23T03:22:26.706Z,5.00
2023-01-23T03:24:53.830Z,5.90
2023-01-23T03:27:20.862Z,6.20
2023-01-23T03:30:09.754Z,6.30
2023-01-23T03:32:38.768Z,5.00
2023-01-23T03:35:06.989Z,6.00
2023-01-23T03:37:34.235Z,5.30
2023-01-23T03:40:20.907Z,6.80
2023-01-23T03:42:48.443Z,7.00
2023-01-23T03:45:20.228Z,5.70
2023-01-23T03:47:47.305Z,6.20
2023-01-23T03:50:14.973Z,6.00
2023-01-23T03:52:42.634Z,6.20
2023-01-23T03:55:10.504Z,6.70
2023-01-23T03:57:37.922Z,5.20
2023-01-23T04:00:14.466Z,5.60
2023-01-23T04:02:43.388Z,5.40
2023-01-23T04:05:11.920Z,7.60
2023-01-23T04:07:39.255Z,5.10
2023-01-23T04:10:06.647Z,5.50
2023-01-23T04:12:34.594Z,5.40
2023-01-23T04:15:01.852Z,5.60
2023-01-23T04:17:29.092Z,5.80
2023-01-23T04:19:56.295Z,5.70
2023-01-23T04:22:23.412Z,5.70
2023-01-23T04:24:50.999Z,6.10
2023-01-23T04:27:19.262Z,4.90
2023-01-23T04:29:48.151Z,6.50
2023-01-23T04:32:15.421Z,6.40
2023-01-23T04:34:45.684Z,5.90
2023-01-23T04:37:12.955Z,6.50
2023-01-23T04:39:40.283Z,7.70
2023-01-23T04:42:07.682Z,6.50
2023-01-23T04:44:54.268Z,6.00
2023-01-23T04:47:33.732Z,7.80
2023-01-23T04:50:01.791Z,5.80
2023-01-23T04:52:31.495Z,6.30
2023-01-23T04:54:59.050Z,6.60
2023-01-23T04:57:26.512Z,6.00
2023-01-23T05:00:14.566Z,7.40
2023-01-23T05:02:41.853Z,6.70
2023-01-23T05:05:09.823Z,7.30
2023-01-23T05:07:37.704Z,8.20
2023-01-23T05:10:10.244Z,8.10
2023-01-23T05:12:37.561Z,8.30
2023-01-23T05:15:05.868Z,9.10
2023-01-23T05:17:35.410Z,8.70
2023-01-23T05:20:02.749Z,9.30
2023-01-23T05:22:29.870Z,10.50
2023-01-23T05:24:57.129Z,10.30
2023-01-23T05:27:26.079Z,10.20
2023-01-23T05:29:54.602Z,9.40
2023-01-23T05:32:25.737Z,9.70
2023-01-23T05:35:08.796Z,10.60
2023-01-23T05:37:36.681Z,10.10
2023-01-23T05:40:07.482Z,10.20
2023-01-23T05:46:17.076Z,11.90
2023-01-23T05:48:51.759Z,13.00
2023-01-23T05:51:20.456Z,12.30
2023-01-23T05:53:48.231Z,11.20
2023-01-23T05:56:15.513Z,13.70
2023-01-23T05:59:01.190Z,14.40
2023-01-23T06:01:39.181Z,13.50
2023-01-23T06:04:26.384Z,15.20
2023-01-23T06:07:02.185Z,13.90
2023-01-23T06:09:29.828Z,16.00
2023-01-23T06:11:57.729Z,13.40
2023-01-23T06:14:24.911Z,10.70
2023-01-23T06:16:52.203Z,11.60
2023-01-23T06:19:20.805Z,12.20
2023-01-23T06:21:48.048Z,12.80
2023-01-23T06:24:15.851Z,12.70
2023-01-23T06:26:43.415Z,12.80
2023-01-23T06:29:10.639Z,11.60
2023-01-23T06:31:38.631Z,11.20
2023-01-23T06:34:07.155Z,13.00
2023-01-23T06:36:40.489Z,13.90
2023-01-23T06:39:08.231Z,12.90
2023-01-23T06:41:40.377Z,11.90
2023-01-23T06:44:08.105Z,13.70
2023-01-23T06:46:35.757Z,51.00
2023-01-23T06:49:06.110Z,63.30
2023-01-23T06:51:36.194Z,25.00
2023-01-23T06:54:03.909Z,58.90
2023-01-23T06:56:31.453Z,45.90
2023-01-23T06:58:58.767Z,27.10
2023-01-23T07:01:30.243Z,14.40
2023-01-23T07:04:19.472Z,14.60
2023-01-23T07:06:48.445Z,13.70
2023-01-23T07:09:16.767Z,14.40
2023-01-23T07:11:48.988Z,14.40
2023-01-23T07:14:16.408Z,12.90
2023-01-23T07:16:44.540Z,14.70
2023-01-23T07:19:11.947Z,16.30
2023-01-23T07:21:39.600Z,12.80
2023-01-23T07:24:07.096Z,16.00
2023-01-23T07:26:34.206Z,14.20
2023-01-23T07:29:01.366Z,13.40
2023-01-23T07:31:28.834Z,13.50
2023-01-23T07:33:56.038Z,15.10
2023-01-23T07:36:23.477Z,15.80
2023-01-23T07:38:50.656Z,13.20
2023-01-23T07:41:17.822Z,16.20
2023-01-23T07:43:45.090Z,21.50
2023-01-23T07:46:12.300Z,14.50
2023-01-23T07:48:39.932Z,14.80
2023-01-23T07:51:07.269Z,15.50
2023-01-23T07:53:34.856Z,16.00
2023-01-23T07:56:06.046Z,16.90
2023-01-23T07:58:33.160Z,15.40
2023-01-23T08:01:00.787Z,17.30
2023-01-23T08:03:30.404Z,15.40
2023-01-23T08:05:57.731Z,16.50
2023-01-23T08:08:25.121Z,18.30
2023-01-23T08:10:52.325Z,19.10
2023-01-23T08:13:19.544Z,16.50
2023-01-23T08:15:46.806Z,14.20
2023-01-23T08:18:14.055Z,17.20
2023-01-23T08:20:41.404Z,14.00
2023-01-23T08:23:08.637Z,16.10
2023-01-23T08:25:38.402Z,18.30
2023-01-23T08:28:05.683Z,24.00
2023-01-23T08:30:33.209Z,17.10
2023-01-23T08:33:00.849Z,16.50
2023-01-23T08:35:28.356Z,28.70
2023-01-23T08:37:56.020Z,21.70
2023-01-23T08:40:23.629Z,15.90
2023-01-23T08:42:51.240Z,15.80
2023-01-23T08:45:18.748Z,21.30
2023-01-23T08:47:46.323Z,18.40
2023-01-23T08:50:13.728Z,21.90
2023-01-23T08:52:41.131Z,24.50
2023-01-23T08:55:09.281Z,24.10
2023-01-23T08:57:36.916Z,18.10
2023-01-23T09:00:04.859Z,16.60
2023-01-23T09:02:32.251Z,20.30
2023-01-23T09:04:59.415Z,27.50
2023-01-23T09:07:26.647Z,19.20
2023-01-23T09:09:55.323Z,18.60
2023-01-23T09:12:22.497Z,15.80
2023-01-23T09:14:50.047Z,19.10
2023-01-23T09:17:17.253Z,18.40
2023-01-23T09:19:44.439Z,19.30
2023-01-23T09:22:11.914Z,19.30
2023-01-23T09:24:39.107Z,18.60
2023-01-23T09:27:06.595Z,20.80
2023-01-23T09:29:34.114Z,22.00
2023-01-23T09:32:02.233Z,19.80
2023-01-23T09:34:29.994Z,20.60
2023-01-23T09:36:57.203Z,20.70
2023-01-23T09:39:24.832Z,20.10
2023-01-23T09:41:52.033Z,20.50
2023-01-23T09:44:22.150Z,17.60
2023-01-23T09:46:56.309Z,19.10
2023-01-23T09:49:53.516Z,20.30
2023-01-23T09:52:22.864Z,16.20
2023-01-23T09:55:15.615Z,17.50
2023-01-23T09:57:55.112Z,20.10
2023-01-23T10:00:32.911Z,18.40
2023-01-23T10:03:00.862Z,18.90
2023-01-23T10:05:44.247Z,15.40
2023-01-23T10:08:17.639Z,15.20
2023-01-23T10:11:08.295Z,18.10
2023-01-23T10:14:00.744Z,31.70
2023-01-23T10:16:49.807Z,18.90
2023-01-23T10:19:30.282Z,18.80
2023-01-23T10:22:23.176Z,17.10
2023-01-23T10:24:52.468Z,23.30
2023-01-23T10:27:44.583Z,22.60
2023-01-23T10:30:21.866Z,17.10
2023-01-23T10:32:56.400Z,17.90
2023-01-23T10:36:05.108Z,17.70
2023-01-23T10:38:43.910Z,17.40
2023-01-23T10:41:13.937Z,17.20
2023-01-23T10:43:42.255Z,19.40
2023-01-23T10:46:17.318Z,19.40
2023-01-23T10:48:49.002Z,18.10
2023-01-23T10:51:29.728Z,17.70
2023-01-23T10:54:06.313Z,16.40
2023-01-23T10:56:34.517Z,17.90
2023-01-23T10:59:02.208Z,18.50
2023-01-23T11:01:31.493Z,17.80
2023-01-23T11:04:27.787Z,19.50
2023-01-23T11:07:18.141Z,19.00
2023-01-23T11:10:08.824Z,20.00
2023-01-23T11:12:46.854Z,17.60
2023-01-23T11:15:14.175Z,19.20
2023-01-23T11:17:41.403Z,18.40
2023-01-23T11:20:25.093Z,14.90
2023-01-23T11:23:11.127Z,18.30
2023-01-23T11:25:40.393Z,16.90
2023-01-23T11:28:20.896Z,17.20
2023-01-23T11:30:48.652Z,17.50
2023-01-23T11:33:25.178Z,17.20
2023-01-23T11:36:00.572Z,15.80
2023-01-23T11:38:31.288Z,17.40
2023-01-23T11:40:58.851Z,15.00
2023-01-23T11:43:26.042Z,16.50
2023-01-23T11:46:08.504Z,15.60
2023-01-23T11:48:54.330Z,16.00
2023-01-23T11:51:28.507Z,16.40
2023-01-23T11:54:38.198Z,16.70
2023-01-23T11:57:12.171Z,17.60
2023-01-23T12:00:01.604Z,14.20
2023-01-23T12:02:47.709Z,22.60
2023-01-23T12:05:33.814Z,20.40
2023-01-23T12:08:22.775Z,19.60
2023-01-23T12:11:13.974Z,20.50
2023-01-23T12:13:56.405Z,18.80
2023-01-23T12:16:29.422Z,19.20
2023-01-23T12:19:27.945Z,24.40
2023-01-23T12:22:05.906Z,19.70
2023-01-23T12:25:02.300Z,16.80
2023-01-23T12:27:44.004Z,17.00
2023-01-23T12:30:48.667Z,16.10
2023-01-23T12:33:54.576Z,14.90
2023-01-23T12:37:05.747Z,14.30
2023-01-23T12:39:35.044Z,14.00
2023-01-23T12:42:18.199Z,13.30
2023-01-23T12:45:02.271Z,14.60
2023-01-23T12:47:43.206Z,14.60
2023-01-23T12:50:22.674Z,14.20
2023-01-23T12:52:53.425Z,15.00
2023-01-23T12:55:23.516Z,16.80
2023-01-23T12:57:59.957Z,14.30
2023-01-23T13:01:05.081Z,14.70
2023-01-23T13:04:07.214Z,16.30
2023-01-23T13:06:40.585Z,14.40
2023-01-23T13:09:17.935Z,15.10
2023-01-23T13:12:19.950Z,14.70
2023-01-23T13:15:10.188Z,14.10
2023-01-23T13:17:46.518Z,13.80
2023-01-23T13:21:14.325Z,13.00
2023-01-23T13:23:41.734Z,13.40
2023-01-23T13:26:23.370Z,13.10
2023-01-23T13:28:55.639Z,16.50
2023-01-23T13:31:50.753Z,14.20
2023-01-23T13:34:18.101Z,14.40
2023-01-23T13:36:49.235Z,14.10
2023-01-23T13:39:16.803Z,13.00
2023-01-23T13:41:48.012Z,12.00
2023-01-23T13:44:40.796Z,11.50
2023-01-23T14:24:53.801Z,28.80
2023-01-23T14:27:44.455Z,32.40
2023-01-23T14:30:20.245Z,37.00
2023-01-23T14:32:47.674Z,30.10
2023-01-23T14:35:19.389Z,25.70
2023-01-23T14:37:46.787Z,28.10
2023-01-23T14:40:27.670Z,30.60
2023-01-23T14:43:03.208Z,44.70
2023-01-23T14:45:33.561Z,66.60
2023-01-23T14:48:06.898Z,54.90
2023-01-23T14:50:34.910Z,32.90
2023-01-23T14:53:07.591Z,29.00
2023-01-23T14:55:37.034Z,48.00
2023-01-23T14:58:04.754Z,24.30
2023-01-23T15:00:31.918Z,38.00
2023-01-23T15:02:59.156Z,29.00
2023-01-23T15:05:29.559Z,23.80
2023-01-23T15:08:01.591Z,18.10
2023-01-23T15:10:35.887Z,19.30
2023-01-23T15:13:05.415Z,16.40
2023-01-23T15:15:33.568Z,14.50
2023-01-23T15:18:01.534Z,13.30
2023-01-23T15:20:29.242Z,15.30
2023-01-23T15:22:56.759Z,16.10
2023-01-23T15:25:31.634Z,23.80
2023-01-23T15:27:59.139Z,20.40
2023-01-23T15:30:35.891Z,23.90
2023-01-23T15:33:07.521Z,23.50
2023-01-23T15:35:35.402Z,19.90
2023-01-23T15:38:06.687Z,16.30
2023-01-23T15:40:38.360Z,15.20
2023-01-23T15:43:11.501Z,15.80
2023-01-23T15:45:39.976Z,17.40
2023-01-23T15:48:08.871Z,20.40
2023-01-23T15:50:37.806Z,25.90
2023-01-23T15:53:11.264Z,28.00
2023-01-23T15:55:40.312Z,24.50
2023-01-23T15:58:18.874Z,25.70
2023-01-23T16:00:47.842Z,25.70
2023-01-23T16:03:16.487Z,30.90
2023-01-23T16:05:44.955Z,24.40
2023-01-23T16:08:19.522Z,21.20
2023-01-23T16:10:48.569Z,20.90
2023-01-23T16:13:17.522Z,19.40
2023-01-23T16:15:46.467Z,19.00
2023-01-23T16:18:15.123Z,18.60
2023-01-23T16:20:44.586Z,18.00
2023-01-23T16:23:31.182Z,16.80
2023-01-23T16:26:04.882Z,19.30
2023-01-23T16:28:34.294Z,20.10
2023-01-23T16:31:03.390Z,19.60
2023-01-23T16:33:32.184Z,18.60
2023-01-23T16:36:01.052Z,20.20
2023-01-23T16:38:30.525Z,21.40
2023-01-23T16:41:00.042Z,30.20
2023-01-23T16:43:28.631Z,26.80
2023-01-23T16:45:57.942Z,27.00
2023-01-23T16:48:27.934Z,35.10
2023-01-23T16:51:04.275Z,32.30
2023-01-23T16:53:41.432Z,37.20
2023-01-23T16:56:24.219Z,33.50
2023-01-23T16:58:53.588Z,38.60
2023-01-23T17:01:23.122Z,40.10
2023-01-23T17:03:57.146Z,40.30
2023-01-23T17:06:26.026Z,38.40
2023-01-23T17:08:54.531Z,39.20
2023-01-23T17:11:47.391Z,38.40
2023-01-23T17:14:21.469Z,41.70
2023-01-23T17:16:50.025Z,43.20
2023-01-23T17:19:30.211Z,44.00
2023-01-23T17:21:59.786Z,42.90
2023-01-23T17:24:28.677Z,40.80
2023-01-23T17:26:57.720Z,36.50
2023-01-23T17:29:26.438Z,38.40
2023-01-23T17:31:55.057Z,42.90
2023-01-23T17:34:24.707Z,42.10
2023-01-23T17:36:54.713Z,42.00
2023-01-23T17:39:23.141Z,46.90
2023-01-23T17:41:53.064Z,43.90
2023-01-23T17:44:21.996Z,46.20
2023-01-23T17:46:55.085Z,44.70
2023-01-23T17:49:30.268Z,42.60
2023-01-23T17:52:00.910Z,33.70
2023-01-23T17:54:30.020Z,28.50
2023-01-23T17:57:00.743Z,31.50
2023-01-23T17:59:29.476Z,28.40
2023-01-23T18:01:58.122Z,28.20
2023-01-23T18:04:29.126Z,21.80
2023-01-23T18:06:58.109Z,22.80
2023-01-23T18:09:27.037Z,27.80
2023-01-23T18:11:56.106Z,27.90
2023-01-23T18:14:30.850Z,24.00
2023-01-23T18:16:59.767Z,20.00
2023-01-23T18:19:31.427Z,20.50
2023-01-23T18:22:00.288Z,19.20
2023-01-23T18:24:30.670Z,19.40
2023-01-23T18:27:19.483Z,19.50
2023-01-23T18:29:52.207Z,19.00
2023-01-23T18:32:30.082Z,18.50
2023-01-23T18:35:30.968Z,18.90
2023-01-23T18:38:11.692Z,17.40
2023-01-23T18:40:52.311Z,16.30
2023-01-23T18:43:26.729Z,15.80
2023-01-23T18:45:56.546Z,16.80
2023-01-23T18:48:26.095Z,17.90
2023-01-23T18:51:21.797Z,16.90
2023-01-23T18:54:21.353Z,15.80
2023-01-23T18:56:58.489Z,15.70
2023-01-23T18:59:49.686Z,14.70
2023-01-23T19:02:31.118Z,16.60
2023-01-23T19:05:14.025Z,17.80
2023-01-23T19:07:43.695Z,19.80
2023-01-23T19:10:20.784Z,18.30
2023-01-23T19:12:51.010Z,19.40
2023-01-23T19:15:31.385Z,19.30
2023-01-23T19:18:06.912Z,18.90
2023-01-23T19:20:56.418Z,17.90
2023-01-23T19:23:42.844Z,16.80
2023-01-23T19:26:15.131Z,16.80
2023-01-23T19:28:43.975Z,17.80
2023-01-23T19:31:32.522Z,19.60
2023-01-23T19:34:01.869Z,20.20
2023-01-23T19:36:32.235Z,24.50
2023-01-23T19:39:03.359Z,28.80
2023-01-23T19:41:41.155Z,27.00
2023-01-23T19:44:14.020Z,32.10
2023-01-23T19:46:44.148Z,30.10
2023-01-23T19:49:12.833Z,30.90
2023-01-23T19:51:41.760Z,29.70
2023-01-23T19:54:12.814Z,27.60
2023-01-23T19:56:41.419Z,30.40
2023-01-23T19:59:10.290Z,32.30
2023-01-23T20:01:45.747Z,31.40
2023-01-23T20:04:16.108Z,22.60
2023-01-23T20:06:45.793Z,21.50
2023-01-23T20:09:17.853Z,21.50
2023-01-23T20:11:47.328Z,20.80
2023-01-23T20:14:15.919Z,20.80
2023-01-23T20:16:44.605Z,21.20
2023-01-23T20:19:14.851Z,19.40
2023-01-23T20:21:43.297Z,21.10
2023-01-23T20:24:11.995Z,19.40
2023-01-23T20:26:41.181Z,20.20
2023-01-23T20:29:10.813Z,21.20
2023-01-23T20:31:39.270Z,22.70
2023-01-23T20:34:07.778Z,20.70
2023-01-23T20:36:36.459Z,22.80
2023-01-23T20:39:06.104Z,23.40
2023-01-23T20:41:34.922Z,25.20
2023-01-23T20:44:03.876Z,25.50
2023-01-23T20:46:32.474Z,28.80
2023-01-23T20:49:01.997Z,43.90
2023-01-23T20:51:30.754Z,33.80
2023-01-23T20:54:00.371Z,29.50
2023-01-23T20:56:30.054Z,27.20
2023-01-23T20:59:17.519Z,23.90
2023-01-23T21:02:04.777Z,24.40
2023-01-23T21:04:36.494Z,23.60
2023-01-23T21:07:05.224Z,19.40
2023-01-23T21:09:35.218Z,18.40
2023-01-23T21:12:03.824Z,18.50
2023-01-23T21:14:32.335Z,17.50
2023-01-23T21:17:01.311Z,17.80
2023-01-23T21:19:30.111Z,16.00
2023-01-23T21:21:58.721Z,14.60
2023-01-23T21:24:27.628Z,16.30
2023-01-23T21:26:56.015Z,14.90
2023-01-23T21:29:24.890Z,14.50
2023-01-23T21:31:53.727Z,13.50
2023-01-23T21:34:23.875Z,13.60
2023-01-23T21:36:52.969Z,17.80
2023-01-23T21:39:21.561Z,15.20
2023-01-23T21:41:50.056Z,14.60
2023-01-23T21:44:18.521Z,13.50
2023-01-23T21:46:47.166Z,12.90
2023-01-23T21:49:15.698Z,18.10
2023-01-23T21:51:45.122Z,14.80
2023-01-23T21:54:13.542Z,18.50
2023-01-23T21:56:41.994Z,20.20
2023-01-23T21:59:11.263Z,19.50
2023-01-23T22:01:42.830Z,33.30
2023-01-23T22:04:13.609Z,23.20
2023-01-23T22:06:43.750Z,17.40
2023-01-23T22:09:17.339Z,13.50
2023-01-23T22:14:15.372Z,11.10
2023-01-23T22:16:49.168Z,13.20
2023-01-23T22:21:47.369Z,11.10
2023-01-23T22:24:16.109Z,13.30
2023-01-23T22:26:44.652Z,14.40
2023-01-23T22:29:14.078Z,11.20
2023-01-23T22:31:42.902Z,12.40
2023-01-23T22:34:11.662Z,13.30
2023-01-23T22:36:40.379Z,11.20
2023-01-23T22:39:08.910Z,10.90
2023-01-23T22:41:37.321Z,9.70
2023-01-23T22:44:06.164Z,10.60
2023-01-23T22:46:35.283Z,12.40
2023-01-23T22:49:04.105Z,12.60
2023-01-23T22:51:32.528Z,11.90
2023-01-23T22:54:01.114Z,12.00
2023-01-23T22:56:29.974Z,11.90
2023-01-23T22:59:01.296Z,12.00
2023-01-23T23:01:30.326Z,10.90
2023-01-23T23:03:59.787Z,10.70
2023-01-23T23:06:28.653Z,11.40
2023-01-23T23:08:58.247Z,10.10
2023-01-23T23:11:27.335Z,12.70
2023-01-23T23:13:56.519Z,11.90
2023-01-23T23:16:27.387Z,11.80
2023-01-23T23:18:56.630Z,11.20
2023-01-23T23:21:30.576Z,12.60
2023-01-23T23:24:00.479Z,12.20
2023-01-23T23:26:30.950Z,13.30
2023-01-23T23:29:02.557Z,12.70
2023-01-23T23:31:32.459Z,12.30
2023-01-23T23:34:01.688Z,11.40
2023-01-23T23:36:30.379Z,12.10
2023-01-23T23:38:58.966Z,13.90
2023-01-23T23:41:27.405Z,13.20
2023-01-23T23:43:59.112Z,12.60
2023-01-23T23:46:27.778Z,12.30
2023-01-23T23:48:56.271Z,12.90
2023-01-23T23:51:29.423Z,13.60
2023-01-23T23:53:57.863Z,13.00
2023-01-23T23:56:28.623Z,13.20
2023-01-23T23:58:56.964Z,11.90
